| time (UTC) | temp C | wind direction | speed KPH | gust KPH | rain 1hr cm | rain 24hr cm | rain mn cm | humidity % | barometer mb |
| 20260506121607 | 5 | 161 | 0.0 | 0.0 | 0.00 | 0.00 | 0.00 | 75 | 1008.6 |
| 20260506120035 | 5 | 161 | 0.0 | 0.0 | 0.00 | 0.00 | 0.00 | 75 | 1008.2 |
| 20260506114537 | 5 | 161 | 0.0 | 0.0 | 0.00 | 0.00 | 0.00 | 74 | 1008.3 |
| 20260506113002 | 5 | 161 | 0.0 | 0.0 | 0.00 | 0.00 | 0.00 | 73 | 1008.4 |
| 20260506111626 | 5 | 161 | 0.0 | 0.0 | 0.00 | 0.00 | 0.00 | 72 | 1008.4 |
| 20260506110110 | 5 | 161 | 0.0 | 0.0 | 0.00 | 0.00 | 0.00 | 70 | 1008.2 |
| 20260506104532 | 6 | 161 | 0.0 | 0.0 | 0.00 | 0.00 | 0.00 | 70 | 1008.2 |
| 20260506103108 | 6 | 161 | 0.0 | 0.0 | 0.00 | 0.00 | 0.00 | 68 | 1008.1 |
| 20260506101616 | 6 | 161 | 0.0 | 0.0 | 0.00 | 0.00 | 0.00 | 68 | 1008.0 |
| 20260506100110 | 6 | 161 | 0.0 | 0.0 | 0.00 | 0.00 | 0.00 | 67 | 1008.0 |
| 20260506094532 | 6 | 161 | 0.0 | 0.0 | 0.00 | 0.00 | 0.00 | 66 | 1007.8 |
| 20260506093002 | 6 | 161 | 0.0 | 0.0 | 0.00 | 0.00 | 0.00 | 65 | 1007.6 |
| 20260506091621 | 7 | 161 | 0.0 | 0.0 | 0.00 | 0.00 | 0.00 | 64 | 1007.7 |
| 20260506090037 | 7 | 161 | 0.0 | 0.0 | 0.00 | 0.00 | 0.00 | 64 | 1007.8 |
| 20260506084523 | 7 | 161 | 0.0 | 0.0 | 0.00 | 0.00 | 0.00 | 63 | 1007.7 |
| 20260506083030 | 7 | 161 | 0.0 | 0.0 | 0.00 | 0.00 | 0.00 | 62 | 1007.5 |
| 20260506081539 | 7 | 161 | 0.0 | 0.0 | 0.00 | 0.00 | 0.00 | 62 | 1007.5 |
| 20260506073010 | 9 | 161 | 0.0 | 0.0 | 0.00 | 0.00 | 0.00 | 57 | 1007.3 |
| 20260506071511 | 10 | 161 | 0.0 | 0.0 | 0.00 | 0.00 | 0.00 | 55 | 1007.0 |
| 20260506061527 | 11 | 161 | 0.0 | 0.0 | 0.00 | 0.00 | 0.00 | 50 | 1006.5 |
| 20260506050113 | 14 | 161 | 0.0 | 0.0 | 0.00 | 0.00 | 0.00 | 42 | 1006.2 |
| 20260506044602 | 15 | 161 | 0.0 | 0.0 | 0.00 | 0.00 | 0.00 | 40 | 1006.2 |
| 20260506043113 | 16 | 161 | 0.0 | 0.0 | 0.00 | 0.00 | 0.00 | 38 | 1006.1 |
| 20260506041610 | 17 | 161 | 0.0 | 0.0 | 0.00 | 0.00 | 0.00 | 36 | 1006.1 |
| 20260506040021 | 17 | 161 | 0.0 | 0.0 | 0.00 | 0.00 | 0.00 | 35 | 1005.7 |
| 20260506034510 | 18 | 161 | 0.0 | 0.0 | 0.00 | 0.00 | 0.00 | 33 | 1005.5 |
| 20260506033106 | 19 | 161 | 0.0 | 0.0 | 0.00 | 0.00 | 0.00 | 32 | 1005.4 |
| 20260506031622 | 20 | 161 | 0.0 | 0.0 | 0.00 | 0.00 | 0.00 | 30 | 1005.1 |
| 20260506030107 | 21 | 161 | 0.0 | 0.0 | 0.00 | 0.00 | 0.00 | 30 | 1004.9 |
| 20260506024602 | 22 | 161 | 0.0 | 0.0 | 0.00 | 0.00 | 0.00 | 28 | 1004.8 |
| 20260506023116 | 23 | 161 | 0.0 | 0.0 | 0.00 | 0.00 | 0.00 | 27 | 1004.8 |
| 20260506021610 | 25 | 161 | 0.0 | 0.0 | 0.00 | 0.00 | 0.00 | 24 | 1004.7 |
| 20260506020009 | 25 | 161 | 0.0 | 0.0 | 0.00 | 0.00 | 0.00 | 23 | 1004.7 |
| 20260506014507 | 25 | 161 | 0.0 | 0.0 | 0.00 | 0.00 | 0.00 | 24 | 1004.7 |
| 20260506013020 | 25 | 161 | 0.0 | 0.0 | 0.00 | 0.00 | 0.00 | 26 | 1004.8 |
| 20260506011511 | 25 | 161 | 3.2 | 0.0 | 0.00 | 0.00 | 0.00 | 26 | 1004.9 |
| 20260506010120 | 26 | 161 | 1.6 | 0.0 | 0.00 | 0.00 | 0.00 | 23 | 1005.1 |
| 20260506004603 | 26 | 162 | 1.6 | 0.0 | 0.00 | 0.00 | 0.00 | 24 | 1005.2 |
| 20260506003002 | 25 | 188 | 3.2 | 0.0 | 0.00 | 0.00 | 0.00 | 26 | 1005.4 |
| 20260506001615 | 24 | 188 | 1.6 | 0.0 | 0.00 | 0.00 | 0.00 | 25 | 1005.4 |
| 20260506000111 | 24 | 188 | 3.2 | 0.0 | 0.00 | 0.00 | 0.00 | 27 | 1005.7 |
| 20260505234537 | 24 | 186 | 3.2 | 0.0 | 0.00 | 0.00 | 0.00 | 25 | 1006.2 |
| 20260505233011 | 25 | 186 | 3.2 | 0.0 | 0.00 | 0.00 | 0.00 | 23 | 1006.2 |
| 20260505231604 | 25 | 172 | 3.2 | 0.0 | 0.00 | 0.00 | 0.00 | 22 | 1006.4 |
| 20260505230108 | 25 | 178 | 1.6 | 0.0 | 0.00 | 0.00 | 0.00 | 23 | 1006.6 |
| 20260505224611 | 25 | 173 | 4.8 | 0.0 | 0.00 | 0.00 | 0.00 | 26 | 1006.8 |
| 20260505223106 | 23 | 233 | 3.2 | 0.0 | 0.00 | 0.00 | 0.00 | 24 | 1006.9 |
| 20260505221514 | 23 | 265 | 3.2 | 0.0 | 0.00 | 0.00 | 0.00 | 28 | 1007.1 |
| 20260505220010 | 23 | 183 | 4.8 | 0.0 | 0.00 | 0.00 | 0.00 | 26 | 1007.3 |
| 20260505214637 | 23 | 185 | 4.8 | 0.0 | 0.00 | 0.00 | 0.00 | 25 | 1007.6 |
| 20260505213136 | 23 | 166 | 1.6 | 0.0 | 0.00 | 0.00 | 0.00 | 25 | 1007.7 |
| 20260505211504 | 23 | 166 | 3.2 | 0.0 | 0.00 | 0.00 | 0.00 | 26 | 1007.9 |
| 20260505210117 | 22 | 170 | 3.2 | 0.0 | 0.00 | 0.00 | 0.00 | 28 | 1008.2 |
| 20260505204524 | 22 | 178 | 9.7 | 0.0 | 0.00 | 0.00 | 0.00 | 28 | 1008.3 |
| 20260505203018 | 22 | 200 | 6.4 | 0.0 | 0.00 | 0.00 | 0.00 | 32 | 1008.4 |
| 20260505201615 | 22 | 183 | 3.2 | 0.0 | 0.00 | 0.00 | 0.00 | 29 | 1008.5 |
| 20260505200033 | 21 | 190 | 3.2 | 0.0 | 0.00 | 0.00 | 0.00 | 31 | 1008.7 |
| 20260505194523 | 21 | 186 | 6.4 | 0.0 | 0.00 | 0.00 | 0.00 | 32 | 1009.0 |
| 20260505193026 | 21 | 181 | 4.8 | 0.0 | 0.00 | 0.00 | 0.00 | 33 | 1009.2 |
| 20260505191521 | 20 | 181 | 6.4 | 0.0 | 0.00 | 0.00 | 0.00 | 35 | 1009.3 |
| 20260505190034 | 20 | 166 | 4.8 | 0.0 | 0.00 | 0.00 | 0.00 | 33 | 1009.4 |
| 20260505184616 | 20 | 171 | 1.6 | 0.0 | 0.00 | 0.00 | 0.00 | 32 | 1009.6 |
| 20260505183047 | 20 | 171 | 3.2 | 0.0 | 0.00 | 0.00 | 0.00 | 33 | 1009.8 |
| 20260505181529 | 20 | 171 | 0.0 | 0.0 | 0.00 | 0.00 | 0.00 | 33 | 1010.0 |
| 20260505180012 | 18 | 171 | 6.4 | 0.0 | 0.00 | 0.00 | 0.00 | 36 | 1010.0 |
| 20260505174622 | 17 | 131 | 0.0 | 0.0 | 0.00 | 0.00 | 0.00 | 39 | 1010.0 |
| 20260505173003 | 16 | 131 | 0.0 | 0.0 | 0.00 | 0.00 | 0.00 | 44 | 1010.2 |
| 20260505171626 | 14 | 131 | 0.0 | 0.0 | 0.00 | 0.00 | 0.00 | 50 | 1010.4 |
| 20260505170027 | 13 | 131 | 0.0 | 0.0 | 0.00 | 0.00 | 0.00 | 56 | 1010.4 |
| 20260505164526 | 12 | 131 | 0.0 | 0.0 | 0.00 | 0.00 | 0.00 | 58 | 1010.6 |
| 20260505163059 | 11 | 131 | 0.0 | 0.0 | 0.00 | 0.00 | 0.00 | 65 | 1010.7 |
| 20260505161629 | 10 | 131 | 0.0 | 0.0 | 0.00 | 0.00 | 0.00 | 63 | 1010.7 |
| 20260505160114 | 10 | 131 | 0.0 | 0.0 | 0.00 | 0.00 | 0.00 | 70 | 1010.9 |
| 20260505153001 | 7 | 131 | 0.0 | 0.0 | 0.00 | 0.00 | 0.00 | 71 | 1011.1 |
| 20260505151537 | 7 | 131 | 0.0 | 0.0 | 0.00 | 0.00 | 0.00 | 75 | 1011.2 |
| 20260505124539 | 2 | 131 | 0.0 | 0.0 | 0.00 | 0.00 | 0.00 | 80 | 1011.1 |
| 20260505123036 | 2 | 131 | 0.0 | 0.0 | 0.00 | 0.00 | 0.00 | 80 | 1010.9 |